Time,TemperatureF,DewpointF,PressureIn,WindDirection,WindDirectionDegrees,WindSpeedMPH,WindSpeedGustMPH,Humidity,HourlyPrecipIn,Conditions,Clouds,dailyrainin,SoftwareType,DateUTC
2013-02-13 00:04:00,26.6,24.9,29.80,West,270,3.8,-999.0,93,-99.99,,,0.00,Acu-Link.com,2013-02-13 05:04:00,
2013-02-13 00:19:00,26.6,24.9,29.80,NW,315,3.8,-999.0,93,-99.99,,,0.00,Acu-Link.com,2013-02-13 05:19:00,
2013-02-13 00:34:00,26.6,25.1,29.80,WNW,292,0.0,-999.0,94,-99.99,,,0.00,Acu-Link.com,2013-02-13 05:34:00,
2013-02-13 00:50:00,26.6,25.1,29.79,NNE,22,2.2,-999.0,94,-99.99,,,0.00,Acu-Link.com,2013-02-13 05:50:00,
2013-02-13 01:05:00,26.6,25.1,29.79,ENE,67,6.3,-999.0,94,-99.99,,,0.00,Acu-Link.com,2013-02-13 06:05:00,
2013-02-13 01:20:00,26.6,25.4,29.79,WNW,292,0.0,-999.0,95,-99.99,,,0.00,Acu-Link.com,2013-02-13 06:20:00,
2013-02-13 01:35:00,26.6,25.4,29.79,NW,315,0.0,-999.0,95,-99.99,,,0.00,Acu-Link.com,2013-02-13 06:35:00,
2013-02-13 01:51:00,26.6,25.4,29.79,SSE,157,0.0,-999.0,95,-99.99,,,0.00,Acu-Link.com,2013-02-13 06:51:00,
2013-02-13 02:06:00,26.6,25.1,29.79,NNW,337,4.3,-999.0,94,-99.99,,,0.00,Acu-Link.com,2013-02-13 07:06:00,
2013-02-13 02:21:00,26.6,25.1,29.78,NW,315,4.7,-999.0,94,-99.99,,,0.00,Acu-Link.com,2013-02-13 07:21:00,
2013-02-13 02:36:00,26.4,24.9,29.77,West,270,1.1,-999.0,94,-99.99,,,0.00,Acu-Link.com,2013-02-13 07:36:00,
2013-02-13 02:51:00,26.4,24.9,29.76,WNW,292,3.1,-999.0,94,-99.99,,,0.00,Acu-Link.com,2013-02-13 07:51:00,
2013-02-13 03:07:00,26.4,25.2,29.76,SW,225,0.0,-999.0,95,-99.99,,,0.00,Acu-Link.com,2013-02-13 08:07:00,
2013-02-13 03:22:00,26.4,25.2,29.76,SE,135,0.0,-999.0,95,-99.99,,,0.00,Acu-Link.com,2013-02-13 08:22:00,
2013-02-13 03:37:00,26.2,25.3,29.76,SE,135,0.0,-999.0,96,-99.99,,,0.00,Acu-Link.com,2013-02-13 08:37:00,
2013-02-13 03:52:00,26.2,25.3,29.76,West,270,0.0,-999.0,96,-99.99,,,0.00,Acu-Link.com,2013-02-13 08:52:00,
2013-02-13 04:15:00,26.1,25.1,29.76,NW,315,2.7,-999.0,96,-99.99,,,0.00,Acu-Link.com,2013-02-13 09:15:00,
2013-02-13 04:31:00,26.1,25.1,29.76,WSW,247,0.0,-999.0,96,-99.99,,,0.00,Acu-Link.com,2013-02-13 09:31:00,
2013-02-13 04:46:00,26.1,24.8,29.76,WSW,247,0.0,-999.0,95,-99.99,,,0.00,Acu-Link.com,2013-02-13 09:46:00,
2013-02-13 05:01:00,26.1,25.1,29.76,NW,315,0.0,-999.0,96,-99.99,,,0.00,Acu-Link.com,2013-02-13 10:01:00,
2013-02-13 05:16:00,25.9,24.6,29.75,West,270,3.1,-999.0,95,-99.99,,,0.00,Acu-Link.com,2013-02-13 10:16:00,
2013-02-13 05:31:00,25.9,24.9,29.75,NW,315,0.0,-999.0,96,-99.99,,,0.00,Acu-Link.com,2013-02-13 10:31:00,
2013-02-13 05:47:00,25.7,24.7,29.74,North,0,0.0,-999.0,96,-99.99,,,0.00,Acu-Link.com,2013-02-13 10:47:00,
2013-02-13 06:02:00,25.7,25.0,29.75,West,270,0.0,-999.0,97,-99.99,,,0.00,Acu-Link.com,2013-02-13 11:02:00,
2013-02-13 06:17:00,25.7,25.0,29.74,NNW,337,0.0,-999.0,97,-99.99,,,0.00,Acu-Link.com,2013-02-13 11:17:00,
2013-02-13 06:32:00,25.7,25.0,29.74,WSW,247,0.0,-999.0,97,-99.99,,,0.00,Acu-Link.com,2013-02-13 11:32:00,
2013-02-13 06:47:00,25.7,25.0,29.73,West,270,0.0,-999.0,97,-99.99,,,0.00,Acu-Link.com,2013-02-13 11:47:00,
2013-02-13 07:03:00,25.7,25.0,29.72,SSW,202,0.0,-999.0,97,-99.99,,,0.00,Acu-Link.com,2013-02-13 12:03:00,
2013-02-13 07:18:00,25.7,25.0,29.71,SSE,157,1.1,-999.0,97,-99.99,,,0.00,Acu-Link.com,2013-02-13 12:18:00,
2013-02-13 07:33:00,25.7,25.0,29.71,SSW,202,0.0,-999.0,97,-99.99,,,0.00,Acu-Link.com,2013-02-13 12:33:00,
2013-02-13 07:48:00,25.7,25.0,29.71,West,270,0.0,-999.0,97,-99.99,,,0.00,Acu-Link.com,2013-02-13 12:48:00,
2013-02-13 08:03:00,25.7,24.7,29.70,North,0,0.0,-999.0,96,-99.99,,,0.00,Acu-Link.com,2013-02-13 13:03:00,
2013-02-13 08:19:00,26.1,25.1,29.70,NE,45,0.0,-999.0,96,-99.99,,,0.00,Acu-Link.com,2013-02-13 13:19:00,
2013-02-13 08:34:00,26.4,25.4,29.71,SE,135,0.0,-999.0,96,-99.99,,,0.00,Acu-Link.com,2013-02-13 13:34:00,
2013-02-13 08:49:00,26.8,25.3,29.71,South,180,0.0,-999.0,94,-99.99,,,0.00,Acu-Link.com,2013-02-13 13:49:00,
2013-02-13 09:04:00,27.7,25.9,29.70,SSE,157,3.1,-999.0,93,-99.99,,,0.00,Acu-Link.com,2013-02-13 14:04:00,
2013-02-13 09:20:00,28.2,26.2,29.69,ESE,112,2.7,-999.0,92,-99.99,,,0.00,Acu-Link.com,2013-02-13 14:20:00,
2013-02-13 09:35:00,28.6,26.0,29.69,ESE,112,3.8,-999.0,90,-99.99,,,0.00,Acu-Link.com,2013-02-13 14:35:00,
2013-02-13 09:50:00,32.0,28.0,29.68,SSE,157,2.2,-999.0,85,-99.99,,,0.00,Acu-Link.com,2013-02-13 14:50:00,
2013-02-13 10:05:00,35.1,29.2,29.67,ESE,112,3.1,-999.0,79,-99.99,,,0.00,Acu-Link.com,2013-02-13 15:05:00,
2013-02-13 10:20:00,37.4,30.5,29.68,South,180,2.2,-999.0,76,-99.99,,,0.00,Acu-Link.com,2013-02-13 15:20:00,
2013-02-13 10:36:00,37.6,30.4,29.68,SSE,157,5.1,-999.0,75,-99.99,,,0.00,Acu-Link.com,2013-02-13 15:36:00,
2013-02-13 10:51:00,39.4,31.1,29.69,SSE,157,2.2,-999.0,72,-99.99,,,0.00,Acu-Link.com,2013-02-13 15:51:00,
2013-02-13 11:06:00,39.0,30.1,29.70,SW,225,3.1,-999.0,70,-99.99,,,0.00,Acu-Link.com,2013-02-13 16:06:00,
2013-02-13 11:21:00,37.6,30.4,29.70,ESE,112,2.2,-999.0,75,-99.99,,,0.00,Acu-Link.com,2013-02-13 16:21:00,
2013-02-13 11:36:00,38.8,31.3,29.70,SSE,157,5.1,-999.0,74,-99.99,,,0.00,Acu-Link.com,2013-02-13 16:36:00,
2013-02-13 11:52:00,41.5,31.8,29.69,SSE,157,4.3,-999.0,68,-99.99,,,0.00,Acu-Link.com,2013-02-13 16:52:00,
2013-02-13 12:07:00,40.3,31.3,29.70,ESE,112,3.1,-999.0,70,-99.99,,,0.00,Acu-Link.com,2013-02-13 17:07:00,
2013-02-13 12:22:00,43.2,32.2,29.68,SE,135,5.1,-999.0,65,-99.99,,,0.00,Acu-Link.com,2013-02-13 17:22:00,
2013-02-13 12:37:00,43.2,33.0,29.67,SW,225,0.0,-999.0,67,-99.99,,,0.00,Acu-Link.com,2013-02-13 17:37:00,
2013-02-13 12:52:00,43.7,32.3,29.66,SSE,157,3.1,-999.0,64,-99.99,,,0.00,Acu-Link.com,2013-02-13 17:52:00,
2013-02-13 13:08:00,44.4,31.8,29.65,SSW,202,3.8,-999.0,61,-99.99,,,0.00,Acu-Link.com,2013-02-13 18:08:00,
2013-02-13 13:23:00,47.1,32.7,29.64,North,0,3.8,-999.0,57,-99.99,,,0.00,Acu-Link.com,2013-02-13 18:23:00,
2013-02-13 13:38:00,46.8,33.6,29.63,WSW,247,0.0,-999.0,60,-99.99,,,0.00,Acu-Link.com,2013-02-13 18:38:00,
2013-02-13 13:53:00,46.9,33.8,29.63,WNW,292,2.2,-999.0,60,-99.99,,,0.00,Acu-Link.com,2013-02-13 18:53:00,
2013-02-13 14:08:00,47.3,33.7,29.62,NNE,22,4.7,-999.0,59,-99.99,,,0.00,Acu-Link.com,2013-02-13 19:08:00,
2013-02-13 14:24:00,45.5,32.4,29.62,NW,315,6.3,-999.0,60,-99.99,,,0.00,Acu-Link.com,2013-02-13 19:24:00,
2013-02-13 14:39:00,45.3,31.8,29.62,ESE,112,2.7,-999.0,59,-99.99,,,0.00,Acu-Link.com,2013-02-13 19:39:00,
2013-02-13 14:54:00,46.0,32.5,29.61,SW,225,5.8,-999.0,59,-99.99,,,0.00,Acu-Link.com,2013-02-13 19:54:00,
2013-02-13 15:09:00,46.8,32.8,29.60,South,180,4.3,-999.0,58,-99.99,,,0.00,Acu-Link.com,2013-02-13 20:09:00,
2013-02-13 15:25:00,47.5,32.6,29.60,SE,135,3.1,-999.0,56,-99.99,,,0.00,Acu-Link.com,2013-02-13 20:25:00,
2013-02-13 15:40:00,46.2,32.3,29.60,SSW,202,5.1,-999.0,58,-99.99,,,0.00,Acu-Link.com,2013-02-13 20:40:00,
2013-02-13 15:55:00,46.8,33.2,29.61,WSW,247,1.1,-999.0,59,-99.99,,,0.00,Acu-Link.com,2013-02-13 20:55:00,
2013-02-13 16:10:00,46.0,32.9,29.60,SE,135,2.2,-999.0,60,-99.99,,,0.00,Acu-Link.com,2013-02-13 21:10:00,
2013-02-13 16:25:00,43.7,32.3,29.60,WSW,247,0.0,-999.0,64,-99.99,,,0.00,Acu-Link.com,2013-02-13 21:25:00,
2013-02-13 16:41:00,42.1,31.9,29.60,SSW,202,0.0,-999.0,67,-99.99,,,0.00,Acu-Link.com,2013-02-13 21:41:00,
2013-02-13 16:56:00,40.3,31.6,29.61,WSW,247,0.0,-999.0,71,-99.99,,,0.00,Acu-Link.com,2013-02-13 21:56:00,
2013-02-13 17:11:00,39.6,31.6,29.61,SW,225,2.2,-999.0,73,-99.99,,,0.00,Acu-Link.com,2013-02-13 22:11:00,
2013-02-13 17:26:00,38.3,31.1,29.61,South,180,0.0,-999.0,75,-99.99,,,0.00,Acu-Link.com,2013-02-13 22:26:00,
2013-02-13 17:41:00,36.7,30.5,29.62,ENE,67,0.0,-999.0,78,-99.99,,,0.00,Acu-Link.com,2013-02-13 22:41:00,
2013-02-13 17:57:00,35.2,30.0,29.61,SSW,202,0.0,-999.0,81,-99.99,,,0.00,Acu-Link.com,2013-02-13 22:57:00,
2013-02-13 18:12:00,33.4,28.8,29.62,SSW,202,0.0,-999.0,83,-99.99,,,0.00,Acu-Link.com,2013-02-13 23:12:00,
2013-02-13 18:27:00,31.8,28.4,29.62,West,270,0.0,-999.0,87,-99.99,,,0.00,Acu-Link.com,2013-02-13 23:27:00,
2013-02-13 18:42:00,30.6,28.3,29.63,WNW,292,0.0,-999.0,91,-99.99,,,0.00,Acu-Link.com,2013-02-13 23:42:00,
2013-02-13 18:57:00,29.1,27.9,29.63,WNW,292,0.0,-999.0,95,-99.99,,,0.00,Acu-Link.com,2013-02-13 23:57:00,
2013-02-13 19:13:00,28.0,27.3,29.63,WNW,292,0.0,-999.0,97,-99.99,,,0.00,Acu-Link.com,2013-02-14 00:13:00,
2013-02-13 19:28:00,27.5,27.0,29.64,West,270,0.0,-999.0,98,-99.99,,,0.00,Acu-Link.com,2013-02-14 00:28:00,
2013-02-13 19:43:00,27.1,26.7,29.64,NW,315,0.0,-999.0,98,-99.99,,,0.00,Acu-Link.com,2013-02-14 00:43:00,
2013-02-13 19:58:00,26.6,26.1,29.64,WNW,292,0.0,-999.0,98,-99.99,,,0.00,Acu-Link.com,2013-02-14 00:58:00,
2013-02-13 20:14:00,26.2,25.8,29.64,SE,135,0.0,-999.0,98,-99.99,,,0.00,Acu-Link.com,2013-02-14 01:14:00,
2013-02-13 20:29:00,25.9,25.4,29.64,SSE,157,0.0,-999.0,98,-99.99,,,0.00,Acu-Link.com,2013-02-14 01:29:00,
2013-02-13 20:44:00,25.5,25.0,29.64,WNW,292,0.0,-999.0,98,-99.99,,,0.00,Acu-Link.com,2013-02-14 01:44:00,
2013-02-13 20:59:00,25.0,24.5,29.64,West,270,0.0,-999.0,98,-99.99,,,0.00,Acu-Link.com,2013-02-14 01:59:00,
2013-02-13 21:14:00,25.0,24.5,29.64,West,270,0.0,-999.0,98,-99.99,,,0.00,Acu-Link.com,2013-02-14 02:14:00,
2013-02-13 21:30:00,25.0,24.5,29.64,West,270,0.0,-999.0,98,-99.99,,,0.00,Acu-Link.com,2013-02-14 02:30:00,
2013-02-13 21:45:00,25.0,24.5,29.64,WNW,292,0.0,-999.0,98,-99.99,,,0.00,Acu-Link.com,2013-02-14 02:45:00,
2013-02-13 22:00:00,25.2,24.7,29.64,West,270,0.0,-999.0,98,-99.99,,,0.00,Acu-Link.com,2013-02-14 03:00:00,
2013-02-13 22:15:00,24.4,24.0,29.64,NW,315,0.0,-999.0,98,-99.99,,,0.00,Acu-Link.com,2013-02-14 03:15:00,
2013-02-13 22:30:00,24.1,23.6,29.65,SE,135,0.0,-999.0,98,-99.99,,,0.00,Acu-Link.com,2013-02-14 03:30:00,
2013-02-13 22:46:00,24.1,23.6,29.65,WNW,292,0.0,-999.0,98,-99.99,,,0.00,Acu-Link.com,2013-02-14 03:46:00,
2013-02-13 23:01:00,23.7,23.2,29.64,NE,45,0.0,-999.0,98,-99.99,,,0.00,Acu-Link.com,2013-02-14 04:01:00,
2013-02-13 23:16:00,23.4,22.9,29.64,NE,45,0.0,-999.0,98,-99.99,,,0.00,Acu-Link.com,2013-02-14 04:16:00,
2013-02-13 23:31:00,23.0,22.5,29.63,NE,45,0.0,-999.0,98,-99.99,,,0.00,Acu-Link.com,2013-02-14 04:31:00,
2013-02-13 23:46:00,22.5,22.0,29.64,West,270,0.0,-999.0,98,-99.99,,,0.00,Acu-Link.com,2013-02-14 04:46:00,